Time;durP1;ratioP1;P1;durP2;ratioP2;P2;SDS_P1;SDS_P2;PMS_P1;PMS_P2;Temp;Humidity;BMP_temperature;BMP_pressure;BME280_temperature;BME280_humidity;BME280_pressure;Samples;Min_cycle;Max_cycle;Signal;HPM_P1;HPM_P2
2023/10/27 00:01:49;;;;;;;;;;;;;;;21.27;26.35;96881.94;5017703;28;951;-77
2023/10/27 00:04:14;;;;;;;;;;;;;;;21.52;25.67;96885.75;5017452;28;1316;-77
2023/10/27 00:06:40;;;;;;;;;;;;;;;21.16;26.19;96892.94;5034023;28;924;-77
2023/10/27 00:09:05;;;;;;;;;;;;;;;20.80;27.02;96902.88;5017827;28;1183;-77
2023/10/27 00:11:31;;;;;;;;;;;;;;;20.79;26.73;96892.84;5017382;28;1898;-77
2023/10/27 00:13:57;;;;;;;;;;;;;;;20.76;26.98;96899.41;5017731;28;1150;-77
2023/10/27 00:16:22;;;;;;;;;;;;;;;20.62;27.08;96894.31;5034225;28;749;-77
2023/10/27 00:18:48;;;;;;;;;;;;;;;20.28;27.46;96907.34;5017591;28;810;-77
2023/10/27 00:21:13;;;;;;;;;;;;;;;20.73;27.06;96900.38;5017959;28;790;-77
2023/10/27 00:23:39;;;;;;;;;;;;;;;20.47;27.24;96899.78;5017238;28;1115;-77
2023/10/27 00:26:05;;;;;;;;;;;;;;;20.58;27.10;96899.34;5017753;28;1078;-77
2023/10/27 00:28:30;;;;;;;;;;;;;;;20.46;27.41;96892.53;5017669;28;1119;-77
2023/10/27 00:30:56;;;;;;;;;;;;;;;20.75;26.67;96897.84;5034092;28;1142;-77
2023/10/27 00:33:21;;;;;;;;;;;;;;;20.41;27.28;96895.16;5017392;28;1910;-77
2023/10/27 00:35:53;;;;;;;;;;;;;;;20.51;27.48;96888.31;5017322;28;889;-77
2023/10/27 00:38:18;;;;;;;;;;;;;;;20.60;27.21;96896.84;4975306;28;1299;-77
2023/10/27 00:40:44;;;;;;;;;;;;;;;20.63;27.22;96887.44;4975042;28;886;-77
2023/10/27 00:43:13;;;;;;;;;;;;;;;20.31;27.49;96885.84;4958965;28;1235;-77
2023/10/27 00:45:38;;;;;;;;;;;;;;;20.47;27.26;96887.69;4958843;28;1624;-77
2023/10/27 00:48:04;;;;;;;;;;;;;;;20.93;26.71;96882.19;4974927;28;917;-77
2023/10/27 00:50:30;;;;;;;;;;;;;;;21.26;26.01;96880.38;4958940;28;1760;-77
2023/10/27 00:52:55;;;;;;;;;;;;;;;21.63;25.59;96880.41;4958736;28;1979;-77
2023/10/27 00:55:21;;;;;;;;;;;;;;;21.37;26.21;96884.81;4962106;28;906;-77
2023/10/27 00:57:47;;;;;;;;;;;;;;;20.97;26.57;96891.31;4978339;28;861;-77
2023/10/27 01:00:14;;;;;;;;;;;;;;;20.83;26.78;96886.22;4994423;28;888;-77
2023/10/27 01:02:39;;;;;;;;;;;;;;;20.84;26.61;96893.50;4978216;28;967;-77
2023/10/27 01:05:05;;;;;;;;;;;;;;;20.92;26.64;96884.22;4992586;28;1124;-77
2023/10/27 01:07:31;;;;;;;;;;;;;;;20.77;26.72;96888.88;4978465;28;888;-77
2023/10/27 01:09:56;;;;;;;;;;;;;;;20.67;26.93;96885.25;4971282;28;1123;-77
2023/10/27 01:12:22;;;;;;;;;;;;;;;20.60;27.06;96884.75;4962314;28;1915;-77
2023/10/27 01:14:48;;;;;;;;;;;;;;;20.68;26.88;96886.84;4962419;28;972;-77
2023/10/27 01:17:13;;;;;;;;;;;;;;;20.84;26.63;96888.63;4978163;28;911;-77
2023/10/27 01:19:39;;;;;;;;;;;;;;;20.74;27.05;96879.31;4978459;28;870;-77
2023/10/27 01:22:05;;;;;;;;;;;;;;;20.78;26.64;96865.81;4978323;28;1188;-77
2023/10/27 01:24:31;;;;;;;;;;;;;;;20.53;27.13;96874.53;4978350;28;1103;-77
2023/10/27 01:26:56;;;;;;;;;;;;;;;20.41;27.38;96869.72;4962010;28;908;-77
2023/10/27 01:29:27;;;;;;;;;;;;;;;20.50;27.15;96869.78;4978163;28;1337;-77
2023/10/27 01:31:53;;;;;;;;;;;;;;;20.91;26.54;96862.06;4985228;28;1906;-77
2023/10/27 01:34:19;;;;;;;;;;;;;;;21.36;26.10;96866.25;5001142;28;787;-77
2023/10/27 01:36:44;;;;;;;;;;;;;;;21.39;25.97;96865.31;5000668;28;1484;-77
2023/10/27 01:39:11;;;;;;;;;;;;;;;21.22;26.34;96865.59;4997431;28;1226;-77
2023/10/27 01:41:37;;;;;;;;;;;;;;;21.21;26.21;96872.50;4970271;28;1222;-77
2023/10/27 01:44:02;;;;;;;;;;;;;;;20.81;26.77;96873.34;4996976;28;1355;-77
2023/10/27 01:46:28;;;;;;;;;;;;;;;20.90;26.75;96871.81;4997496;28;790;-77
2023/10/27 01:48:53;;;;;;;;;;;;;;;20.41;27.37;96867.69;4980912;28;1171;-77
2023/10/27 01:51:19;;;;;;;;;;;;;;;20.66;27.22;96860.28;4997097;28;1902;-76
2023/10/27 01:53:45;;;;;;;;;;;;;;;20.54;27.43;96870.44;4980786;28;1266;-77
2023/10/27 01:56:10;;;;;;;;;;;;;;;20.66;26.97;96872.38;4981037;28;1132;-77
2023/10/27 01:58:40;;;;;;;;;;;;;;;20.64;26.95;96860.75;4980882;28;1079;-77
2023/10/27 02:01:06;;;;;;;;;;;;;;;20.41;27.50;96858.41;4981119;28;916;-77
2023/10/27 02:03:32;;;;;;;;;;;;;;;20.58;27.34;96865.44;4980700;28;1151;-76
2023/10/27 02:05:58;;;;;;;;;;;;;;;20.54;27.10;96864.78;4997167;28;846;-77
2023/10/27 02:08:23;;;;;;;;;;;;;;;20.38;27.43;96867.84;4980941;28;1541;-77
2023/10/27 02:10:49;;;;;;;;;;;;;;;20.61;26.91;96870.16;4995770;28;1290;-77
2023/10/27 02:13:14;;;;;;;;;;;;;;;20.43;27.47;96870.06;5000243;28;1985;-77
2023/10/27 02:15:40;;;;;;;;;;;;;;;20.41;27.40;96872.53;5000312;28;818;-77
2023/10/27 02:18:06;;;;;;;;;;;;;;;20.67;27.03;96878.81;5015916;28;1138;-77
2023/10/27 02:20:31;;;;;;;;;;;;;;;21.24;26.48;96877.25;5021002;28;819;-77
2023/10/27 02:22:57;;;;;;;;;;;;;;;21.30;26.47;96883.09;5040762;28;779;-77
2023/10/27 02:25:22;;;;;;;;;;;;;;;21.20;26.70;96881.47;5019377;28;1170;-77
2023/10/27 02:27:48;;;;;;;;;;;;;;;20.67;27.45;96890.88;5019627;28;1392;-77
2023/10/27 02:30:14;;;;;;;;;;;;;;;20.92;27.20;96897.56;5019205;28;1202;-77
2023/10/27 02:32:40;;;;;;;;;;;;;;;20.35;27.95;96897.00;5019382;28;1914;-77
2023/10/27 02:35:06;;;;;;;;;;;;;;;20.73;27.57;96894.72;5003128;28;1162;-77
2023/10/27 02:37:31;;;;;;;;;;;;;;;20.88;27.16;96906.22;5002926;28;1238;-77
2023/10/27 02:39:57;;;;;;;;;;;;;;;20.94;27.14;96909.22;5035603;28;864;-77
2023/10/27 02:42:22;;;;;;;;;;;;;;;20.66;27.50;96911.94;5019295;28;1130;-77
2023/10/27 02:44:48;;;;;;;;;;;;;;;20.51;27.78;96905.28;5002625;28;1187;-77
2023/10/27 02:47:13;;;;;;;;;;;;;;;20.71;27.68;96910.53;5019497;28;1293;-78
2023/10/27 02:49:40;;;;;;;;;;;;;;;20.47;27.84;96916.75;5035733;28;1028;-77
2023/10/27 02:52:06;;;;;;;;;;;;;;;20.65;27.73;96916.03;5019803;28;1910;-77
2023/10/27 02:54:31;;;;;;;;;;;;;;;20.74;27.41;96913.25;5035230;28;747;-77
2023/10/27 02:56:57;;;;;;;;;;;;;;;20.64;27.72;96908.00;5052176;28;766;-77
2023/10/27 02:59:23;;;;;;;;;;;;;;;20.37;28.05;96911.47;5023236;28;1239;-77
2023/10/27 03:01:48;;;;;;;;;;;;;;;20.33;28.19;96910.81;5035334;28;903;-77
2023/10/27 03:04:14;;;;;;;;;;;;;;;20.41;27.99;96912.09;5002407;28;1208;-77
2023/10/27 03:06:41;;;;;;;;;;;;;;;20.70;27.68;96909.75;5035484;28;911;-77
2023/10/27 03:09:07;;;;;;;;;;;;;;;20.84;27.30;96921.75;5018336;28;925;-77
2023/10/27 03:11:32;;;;;;;;;;;;;;;20.84;27.58;96916.09;5035117;28;1902;-77
2023/10/27 03:13:58;;;;;;;;;;;;;;;20.58;28.08;96915.53;5018827;28;835;-77
2023/10/27 03:16:23;;;;;;;;;;;;;;;20.30;28.37;96913.31;5035328;28;765;-77
2023/10/27 03:18:50;;;;;;;;;;;;;;;20.70;27.94;96906.94;5035473;28;692;-77
2023/10/27 03:21:16;;;;;;;;;;;;;;;20.55;28.11;96901.06;5001871;28;1251;-77
2023/10/27 03:23:41;;;;;;;;;;;;;;;20.42;28.15;96902.41;5018483;28;952;-77
2023/10/27 03:26:07;;;;;;;;;;;;;;;20.69;28.11;96899.72;5002094;28;1283;-77
2023/10/27 03:28:32;;;;;;;;;;;;;;;21.27;26.92;96898.91;5017222;28;956;-77
2023/10/27 03:30:58;;;;;;;;;;;;;;;21.41;26.63;96896.78;5034789;28;921;-77
2023/10/27 03:33:24;;;;;;;;;;;;;;;21.62;26.34;96895.03;5001892;28;1974;-77
2023/10/27 03:35:49;;;;;;;;;;;;;;;21.40;26.97;96889.50;5034638;28;1225;-77
2023/10/27 03:38:15;;;;;;;;;;;;;;;20.84;27.62;96902.75;5017880;28;842;-77
2023/10/27 03:40:41;;;;;;;;;;;;;;;20.80;27.94;96897.22;5018265;28;1314;-77
2023/10/27 03:43:08;;;;;;;;;;;;;;;20.83;27.57;96898.34;5018008;28;1670;-77
2023/10/27 03:45:34;;;;;;;;;;;;;;;20.53;28.58;96900.75;5015708;28;1196;-77
2023/10/27 03:47:59;;;;;;;;;;;;;;;20.47;28.41;96899.00;5014601;28;971;-78
2023/10/27 03:50:26;;;;;;;;;;;;;;;20.55;28.17;96901.06;4998496;28;1242;-78
2023/10/27 03:52:51;;;;;;;;;;;;;;;20.69;28.05;96907.41;4974154;28;2269;-77
2023/10/27 03:55:17;;;;;;;;;;;;;;;20.76;28.23;96910.72;4979011;28;1080;-77
2023/10/27 03:57:42;;;;;;;;;;;;;;;20.62;28.49;96911.28;4995196;28;978;-77
2023/10/27 04:00:08;;;;;;;;;;;;;;;20.58;28.27;96910.66;4995268;28;1532;-77
2023/10/27 04:02:37;;;;;;;;;;;;;;;20.71;28.17;96899.25;4995144;28;1041;-77
2023/10/27 04:05:06;;;;;;;;;;;;;;;20.80;27.99;96899.28;4994950;28;1492;-77
2023/10/27 04:07:31;;;;;;;;;;;;;;;20.36;28.63;96902.19;5011150;28;1157;-77
2023/10/27 04:09:57;;;;;;;;;;;;;;;20.80;27.99;96905.72;4998537;28;983;-77
2023/10/27 04:12:22;;;;;;;;;;;;;;;20.51;28.27;96888.31;4982346;28;1981;-77
2023/10/27 04:14:48;;;;;;;;;;;;;;;20.63;28.11;96890.28;4998475;28;939;-77
2023/10/27 04:17:14;;;;;;;;;;;;;;;20.57;28.10;96886.47;4998353;28;1263;-77
2023/10/27 04:19:39;;;;;;;;;;;;;;;20.54;27.97;96893.06;4998253;28;1192;-77
2023/10/27 04:22:05;;;;;;;;;;;;;;;20.57;28.11;96894.94;4998014;28;1095;-77
2023/10/27 04:24:31;;;;;;;;;;;;;;;20.50;28.14;96898.06;5018862;28;904;-77
2023/10/27 04:26:56;;;;;;;;;;;;;;;20.52;28.19;96899.19;5051745;28;1543;-77
2023/10/27 04:29:21;;;;;;;;;;;;;;;20.72;27.88;96892.31;5036622;28;916;-77
2023/10/27 04:31:47;;;;;;;;;;;;;;;20.62;28.14;96891.50;5054856;28;1933;-77
2023/10/27 04:34:12;;;;;;;;;;;;;;;20.60;27.81;96885.53;5055743;28;1236;-77
2023/10/27 04:36:38;;;;;;;;;;;;;;;21.24;26.92;96888.56;5038592;28;1314;-77
2023/10/27 04:39:04;;;;;;;;;;;;;;;21.20;27.11;96893.56;5022085;28;1122;-77
2023/10/27 04:41:30;;;;;;;;;;;;;;;21.56;26.79;96892.06;5042605;28;879;-77
2023/10/27 04:43:56;;;;;;;;;;;;;;;21.56;26.85;96886.41;5042307;28;1021;-77
2023/10/27 04:46:22;;;;;;;;;;;;;;;21.22;27.04;96899.53;5042734;28;886;-77
2023/10/27 04:48:47;;;;;;;;;;;;;;;21.14;27.24;96895.44;5059852;28;938;-77
2023/10/27 04:51:13;;;;;;;;;;;;;;;20.98;27.27;96904.97;5025685;28;975;-77
2023/10/27 04:53:38;;;;;;;;;;;;;;;20.74;27.91;96901.94;5042065;28;1989;-77
2023/10/27 04:56:04;;;;;;;;;;;;;;;20.91;27.44;96904.50;5042086;28;867;-77
2023/10/27 04:58:29;;;;;;;;;;;;;;;20.67;27.79;96901.41;5041944;28;941;-77
2023/10/27 05:00:55;;;;;;;;;;;;;;;20.76;27.82;96899.41;5025649;28;1103;-77
2023/10/27 05:03:20;;;;;;;;;;;;;;;20.88;27.75;96911.06;5025850;28;1162;-77
2023/10/27 05:05:46;;;;;;;;;;;;;;;20.57;28.06;96903.41;5059641;28;875;-77
2023/10/27 05:08:11;;;;;;;;;;;;;;;20.51;28.12;96899.63;5042270;28;970;-77
2023/10/27 05:10:39;;;;;;;;;;;;;;;20.23;28.67;96901.50;5042343;28;891;-77
2023/10/27 05:13:04;;;;;;;;;;;;;;;20.18;28.70;96905.72;5009466;28;1965;-77
2023/10/27 05:15:30;;;;;;;;;;;;;;;20.62;28.05;96905.63;5041745;28;939;-77
2023/10/27 05:17:55;;;;;;;;;;;;;;;20.78;27.65;96913.88;5042001;28;1059;-77
2023/10/27 05:20:21;;;;;;;;;;;;;;;20.63;28.02;96912.09;5059735;28;1098;-77
2023/10/27 05:22:46;;;;;;;;;;;;;;;20.81;27.86;96923.47;5008656;28;1207;-77
2023/10/27 05:25:12;;;;;;;;;;;;;;;20.74;28.07;96918.88;5042141;28;1096;-77
2023/10/27 05:27:37;;;;;;;;;;;;;;;20.88;27.72;96928.03;5041561;28;1001;-78
2023/10/27 05:30:03;;;;;;;;;;;;;;;20.80;27.85;96921.91;5059631;28;969;-75
2023/10/27 05:32:29;;;;;;;;;;;;;;;20.58;28.14;96916.31;5041765;28;1910;-75
2023/10/27 05:34:55;;;;;;;;;;;;;;;20.59;27.76;96929.19;5024049;28;952;-76
2023/10/27 05:37:21;;;;;;;;;;;;;;;20.50;28.20;96929.91;5041630;28;938;-76
2023/10/27 05:39:47;;;;;;;;;;;;;;;20.57;28.35;96926.03;5041514;28;934;-76
2023/10/27 05:42:13;;;;;;;;;;;;;;;20.46;28.31;96939.75;5041360;28;851;-77
2023/10/27 05:44:41;;;;;;;;;;;;;;;20.42;28.39;96930.66;5041549;28;1162;-77
2023/10/27 05:47:06;;;;;;;;;;;;;;;20.75;28.07;96940.25;5059242;28;993;-77
2023/10/27 05:49:32;;;;;;;;;;;;;;;20.47;28.32;96941.38;5041315;28;1083;-77
2023/10/27 05:52:02;;;;;;;;;;;;;;;20.46;28.17;96939.75;5040241;28;1902;-77
2023/10/27 05:54:28;;;;;;;;;;;;;;;20.60;28.02;96933.59;5042175;28;898;-77
2023/10/27 05:56:54;;;;;;;;;;;;;;;20.30;28.51;96932.28;5041391;28;992;-77
2023/10/27 05:59:19;;;;;;;;;;;;;;;20.65;28.04;96938.63;5041208;28;982;-77
2023/10/27 06:01:48;;;;;;;;;;;;;;;20.41;28.31;96923.41;5041442;28;988;-77
2023/10/27 06:04:14;;;;;;;;;;;;;;;20.48;28.08;96942.97;5058458;28;1197;-77
2023/10/27 06:06:39;;;;;;;;;;;;;;;20.47;28.23;96927.25;5024288;28;1086;-77
2023/10/27 06:09:05;;;;;;;;;;;;;;;20.51;28.13;96939.19;5040745;28;939;-77
2023/10/27 06:11:30;;;;;;;;;;;;;;;20.64;27.87;96937.06;5058676;28;1906;-77
2023/10/27 06:13:56;;;;;;;;;;;;;;;20.49;28.37;96936.03;5024217;28;1648;-77
2023/10/27 06:16:21;;;;;;;;;;;;;;;20.41;28.47;96935.50;5024349;28;877;-77
2023/10/27 06:18:47;;;;;;;;;;;;;;;21.04;27.70;96930.63;5040964;28;1070;-76
2023/10/27 06:21:13;;;;;;;;;;;;;;;21.09;27.43;96927.19;5040905;28;1077;-77
2023/10/27 06:23:38;;;;;;;;;;;;;;;21.41;27.21;96925.84;5023971;28;1318;-77
2023/10/27 06:26:04;;;;;;;;;;;;;;;21.29;27.19;96924.69;5040806;28;970;-77
2023/10/27 06:28:30;;;;;;;;;;;;;;;20.88;27.67;96928.84;5058080;28;1036;-77
2023/10/27 06:30:55;;;;;;;;;;;;;;;20.89;27.90;96929.63;5039916;28;937;-77
2023/10/27 06:33:22;;;;;;;;;;;;;;;20.69;28.04;96919.50;5023553;28;1910;-77
2023/10/27 06:35:49;;;;;;;;;;;;;;;20.52;28.71;96932.28;5008098;28;1313;-77
2023/10/27 06:38:14;;;;;;;;;;;;;;;20.62;28.23;96922.59;4999875;28;932;-77
2023/10/27 06:40:40;;;;;;;;;;;;;;;20.64;28.34;96925.75;4999473;28;1036;-77
2023/10/27 06:43:05;;;;;;;;;;;;;;;20.74;28.18;96918.88;5016237;28;1394;-77
2023/10/27 06:45:31;;;;;;;;;;;;;;;20.55;28.75;96917.22;5015588;28;1089;-77
2023/10/27 06:47:57;;;;;;;;;;;;;;;20.74;28.57;96918.88;5015818;28;979;-76
2023/10/27 06:50:22;;;;;;;;;;;;;;;20.56;28.48;96918.81;5016092;28;1038;-77
2023/10/27 06:52:47;;;;;;;;;;;;;;;20.60;28.69;96916.63;4999579;28;1911;-77
2023/10/27 06:55:13;;;;;;;;;;;;;;;20.46;28.80;96919.97;5015869;28;1035;-77
2023/10/27 06:57:39;;;;;;;;;;;;;;;20.89;28.13;96923.97;4999305;28;1079;-77
2023/10/27 07:00:06;;;;;;;;;;;;;;;20.92;28.27;96920.97;4982857;28;950;-77
2023/10/27 07:02:32;;;;;;;;;;;;;;;20.44;28.77;96916.84;5015326;28;1050;-77
2023/10/27 07:04:57;;;;;;;;;;;;;;;20.57;28.70;96920.38;5015817;28;999;-77
2023/10/27 07:07:23;;;;;;;;;;;;;;;20.71;28.18;96924.69;4998896;28;1125;-76
2023/10/27 07:09:49;;;;;;;;;;;;;;;20.67;28.37;96919.16;5028729;28;1090;-76
2023/10/27 07:12:14;;;;;;;;;;;;;;;20.55;28.46;96918.00;5054967;28;1938;-77
2023/10/27 07:14:40;;;;;;;;;;;;;;;20.60;28.71;96913.81;5038092;28;1170;-77
2023/10/27 07:17:05;;;;;;;;;;;;;;;20.78;28.21;96919.53;5038163;28;1205;-76
2023/10/27 07:19:35;;;;;;;;;;;;;;;20.42;28.74;96908.06;5054900;28;1227;-77
2023/10/27 07:22:01;;;;;;;;;;;;;;;20.67;28.46;96913.50;5038564;28;893;-76
2023/10/27 07:24:29;;;;;;;;;;;;;;;20.73;28.48;96902.41;5037942;28;1121;-76
2023/10/27 07:26:55;;;;;;;;;;;;;;;20.67;28.45;96901.41;5039039;28;1248;-76
2023/10/27 07:29:21;;;;;;;;;;;;;;;20.57;28.80;96894.16;5038069;28;1019;-76
2023/10/27 07:31:46;;;;;;;;;;;;;;;20.83;28.49;96900.38;5037770;28;1902;-77
2023/10/27 07:34:12;;;;;;;;;;;;;;;20.37;29.14;96905.81;5054689;28;1013;-77
2023/10/27 07:36:37;;;;;;;;;;;;;;;20.64;28.54;96908.81;5054877;28;942;-76
2023/10/27 07:39:03;;;;;;;;;;;;;;;20.49;28.69;96893.66;5038855;28;1245;-77
2023/10/27 07:41:28;;;;;;;;;;;;;;;21.02;28.29;96893.53;5022902;28;963;-76
2023/10/27 07:43:54;;;;;;;;;;;;;;;21.38;27.71;96892.03;5038977;28;995;-76
2023/10/27 07:46:19;;;;;;;;;;;;;;;21.56;27.59;96892.84;5056790;28;1080;-77
2023/10/27 07:48:45;;;;;;;;;;;;;;;21.20;28.14;96899.22;5056709;28;925;-76
2023/10/27 07:51:10;;;;;;;;;;;;;;;21.11;28.07;96896.38;5056616;28;999;-76
2023/10/27 07:53:36;;;;;;;;;;;;;;;20.69;28.79;96898.94;5056652;28;1987;-77
2023/10/27 07:56:04;;;;;;;;;;;;;;;20.64;28.87;96902.38;4998340;28;1000;-77
2023/10/27 07:58:29;;;;;;;;;;;;;;;20.85;28.66;96907.16;5014383;28;1450;-76
2023/10/27 08:00:55;;;;;;;;;;;;;;;20.85;28.46;96912.81;5014408;28;1538;-77
2023/10/27 08:03:21;;;;;;;;;;;;;;;20.85;28.53;96909.19;4998051;28;906;-76
2023/10/27 08:05:47;;;;;;;;;;;;;;;20.63;28.89;96907.22;4998480;28;1122;-76
2023/10/27 08:08:13;;;;;;;;;;;;;;;20.92;28.56;96911.72;4998466;28;1013;-77
2023/10/27 08:10:38;;;;;;;;;;;;;;;20.84;28.62;96910.44;4998081;28;985;-77
2023/10/27 08:13:05;;;;;;;;;;;;;;;20.52;29.17;96889.88;5002702;28;1926;-76
2023/10/27 08:15:34;;;;;;;;;;;;;;;20.73;28.75;96891.09;5022550;28;1518;-76
2023/10/27 08:18:00;;;;;;;;;;;;;;;20.65;29.20;96899.06;5005904;28;1745;-77
2023/10/27 08:20:26;;;;;;;;;;;;;;;20.75;29.11;96897.06;4991060;28;1655;-76
2023/10/27 08:22:52;;;;;;;;;;;;;;;20.52;29.45;96872.94;5027078;28;1630;-77
2023/10/27 08:25:17;;;;;;;;;;;;;;;20.38;29.30;96882.75;4997808;28;1422;-77
2023/10/27 08:27:43;;;;;;;;;;;;;;;20.41;29.54;96878.19;5047241;28;1553;-77
2023/10/27 08:30:08;;;;;;;;;;;;;;;20.47;29.57;96877.19;5055753;28;1481;-77
2023/10/27 08:32:34;;;;;;;;;;;;;;;20.50;29.55;96866.97;5055867;28;1898;-77
2023/10/27 08:34:59;;;;;;;;;;;;;;;20.55;29.42;96872.00;5037480;28;1600;-77
2023/10/27 08:37:26;;;;;;;;;;;;;;;20.43;29.64;96875.72;5056541;28;1513;-77
2023/10/27 08:39:51;;;;;;;;;;;;;;;20.59;29.22;96861.38;5037983;28;1567;-77
2023/10/27 08:42:17;;;;;;;;;;;;;;;20.65;29.28;96858.72;5038779;28;1561;-77
2023/10/27 08:44:42;;;;;;;;;;;;;;;20.63;29.15;96866.88;5056168;28;1063;-77
2023/10/27 08:47:08;;;;;;;;;;;;;;;20.72;29.05;96850.72;5056135;28;1001;-77
2023/10/27 08:49:33;;;;;;;;;;;;;;;20.67;29.10;96842.06;4994619;28;1048;-77
2023/10/27 08:52:00;;;;;;;;;;;;;;;20.72;29.22;96842.22;4994725;28;2050;-77
2023/10/27 08:54:25;;;;;;;;;;;;;;;20.59;29.37;96841.59;4994605;28;976;-77
2023/10/27 08:56:51;;;;;;;;;;;;;;;20.68;29.29;96841.63;4994744;28;1055;-77
2023/10/27 08:59:17;;;;;;;;;;;;;;;20.65;29.33;96842.53;4994209;28;1152;-77
2023/10/27 09:01:43;;;;;;;;;;;;;;;20.90;28.90;96847.16;4994531;28;966;-77
2023/10/27 09:04:12;;;;;;;;;;;;;;;20.88;29.06;96837.56;4962078;28;934;-77
2023/10/27 09:06:38;;;;;;;;;;;;;;;20.62;29.21;96832.16;4978471;28;974;-77
2023/10/27 09:09:05;;;;;;;;;;;;;;;20.54;29.58;96842.97;4978136;28;1011;-77
2023/10/27 09:11:43;;;;;;;;;;;;;;;20.86;29.20;96840.06;4955587;29;1966;-77
2023/10/27 09:14:18;;;;;;;;;;;;;;;20.89;29.11;96830.66;4939811;29;1064;-77
2023/10/27 09:16:44;;;;;;;;;;;;;;;20.50;29.45;96831.03;4939841;29;959;-77
2023/10/27 09:19:31;;;;;;;;;;;;;;;20.42;29.65;96817.63;4935937;29;1568;-77
2023/10/27 09:21:57;;;;;;;;;;;;;;;20.46;29.69;96806.97;4920301;29;1539;-77
2023/10/27 09:24:26;;;;;;;;;;;;;;;20.58;29.55;96806.09;4935983;29;1728;-77
2023/10/27 09:26:52;;;;;;;;;;;;;;;20.64;29.57;96795.75;4921064;29;1509;-77
2023/10/27 09:29:18;;;;;;;;;;;;;;;20.68;29.36;96801.25;4939807;29;2039;-77
2023/10/27 09:31:44;;;;;;;;;;;;;;;20.64;29.59;96803.44;4921954;29;1911;-77
2023/10/27 09:34:24;;;;;;;;;;;;;;;20.72;29.17;96805.47;4921149;29;1521;-77
2023/10/27 09:36:53;;;;;;;;;;;;;;;20.81;29.35;96807.56;4907706;29;1647;-77
2023/10/27 09:39:23;;;;;;;;;;;;;;;20.71;29.22;96806.75;4907474;29;1774;-77
2023/10/27 09:41:52;;;;;;;;;;;;;;;20.44;29.71;96795.34;4928924;29;1695;-78
2023/10/27 09:44:17;;;;;;;;;;;;;;;20.60;29.42;96806.41;4952959;29;1609;-77
2023/10/27 09:46:46;;;;;;;;;;;;;;;20.44;29.91;96793.31;4932220;29;1538;-77
2023/10/27 09:49:11;;;;;;;;;;;;;;;20.62;29.70;96784.09;4935671;29;1587;-77
2023/10/27 09:51:37;;;;;;;;;;;;;;;20.58;29.58;96786.31;4949995;28;1906;-77
2023/10/27 09:54:02;;;;;;;;;;;;;;;20.60;29.42;96778.16;4956808;28;1345;-77
2023/10/27 09:56:28;;;;;;;;;;;;;;;20.87;29.29;96774.56;4942340;28;1547;-78
2023/10/27 09:58:54;;;;;;;;;;;;;;;20.86;29.01;96766.56;4941878;29;1559;-77
2023/10/27 10:01:19;;;;;;;;;;;;;;;20.65;29.44;96754.91;4942079;29;1629;-77
2023/10/27 10:03:45;;;;;;;;;;;;;;;20.77;29.43;96758.84;4961474;28;1565;-77
2023/10/27 10:06:15;;;;;;;;;;;;;;;20.76;29.22;96755.25;4957777;28;1735;-77
2023/10/27 10:08:41;;;;;;;;;;;;;;;20.66;29.72;96764.97;4958377;29;929;-76
2023/10/27 10:11:13;;;;;;;;;;;;;;;20.35;30.00;96761.41;4942460;29;1156;-77
2023/10/27 10:13:38;;;;;;;;;;;;;;;20.45;29.70;96748.88;4958249;29;1911;-77
2023/10/27 10:16:05;;;;;;;;;;;;;;;20.81;29.40;96743.31;4961651;28;2106;-77
2023/10/27 10:18:33;;;;;;;;;;;;;;;20.84;29.06;96752.13;4961092;28;1028;-77
2023/10/27 10:20:59;;;;;;;;;;;;;;;20.73;29.13;96750.53;4977364;28;1017;-77
2023/10/27 10:23:37;;;;;;;;;;;;;;;20.68;29.54;96748.34;4961497;28;1175;-77
2023/10/27 10:26:02;;;;;;;;;;;;;;;20.88;29.42;96747.06;4962345;28;1231;-77
2023/10/27 10:28:33;;;;;;;;;;;;;;;20.62;29.63;96749.41;4993287;28;1017;-77
2023/10/27 10:31:19;;;;;;;;;;;;;;;20.51;29.63;96747.03;4976680;28;1120;-78
2023/10/27 10:33:46;;;;;;;;;;;;;;;20.44;30.00;96747.31;4977023;28;1993;-78
2023/10/27 10:36:14;;;;;;;;;;;;;;;20.79;29.35;96739.41;4977143;28;1032;-78
2023/10/27 10:38:40;;;;;;;;;;;;;;;20.75;29.37;96745.19;4960433;28;1255;-77
2023/10/27 10:41:06;;;;;;;;;;;;;;;20.66;29.29;96736.69;4961157;28;1010;-78
2023/10/27 10:43:34;;;;;;;;;;;;;;;20.63;29.56;96737.66;4976734;28;941;-78
2023/10/27 10:46:03;;;;;;;;;;;;;;;20.66;29.41;96739.53;4977099;28;1060;-78
2023/10/27 10:48:29;;;;;;;;;;;;;;;20.50;29.54;96734.16;4963938;28;940;-77
2023/10/27 10:50:56;;;;;;;;;;;;;;;20.71;29.52;96733.25;4979688;28;1063;-77
2023/10/27 10:53:24;;;;;;;;;;;;;;;20.84;29.35;96729.50;4980157;28;1918;-77
2023/10/27 10:55:50;;;;;;;;;;;;;;;20.73;29.27;96724.31;4996664;28;1043;-78
2023/10/27 10:58:22;;;;;;;;;;;;;;;20.54;29.61;96720.69;5035222;28;1047;-77
2023/10/27 11:00:51;;;;;;;;;;;;;;;20.87;29.22;96718.03;5019074;28;972;-78
2023/10/27 11:03:17;;;;;;;;;;;;;;;20.79;29.31;96694.94;5018812;28;1144;-77
2023/10/27 11:05:43;;;;;;;;;;;;;;;20.79;29.19;96697.78;5035056;28;1087;-78
2023/10/27 11:08:08;;;;;;;;;;;;;;;20.83;29.44;96694.00;5015184;28;1150;-77
2023/10/27 11:10:34;;;;;;;;;;;;;;;20.87;29.34;96694.63;4990592;28;1347;-78
2023/10/27 11:13:01;;;;;;;;;;;;;;;20.89;29.28;96690.09;5034779;28;1906;-78
2023/10/27 11:15:43;;;;;;;;;;;;;;;20.93;29.02;96692.72;5015049;28;990;-78
2023/10/27 11:18:12;;;;;;;;;;;;;;;20.72;29.61;96689.59;4998786;28;960;-77
2023/10/27 11:20:38;;;;;;;;;;;;;;;20.75;29.27;96688.66;5015036;28;937;-78
2023/10/27 11:23:21;;;;;;;;;;;;;;;20.70;29.52;96677.97;5015378;28;1218;-78
2023/10/27 11:25:47;;;;;;;;;;;;;;;20.76;29.38;96678.91;5015110;28;915;-77
2023/10/27 11:28:21;;;;;;;;;;;;;;;20.88;29.28;96679.22;5015171;28;940;-77
2023/10/27 11:30:59;;;;;;;;;;;;;;;20.67;29.58;96676.09;4998843;28;1139;-77
2023/10/27 11:33:25;;;;;;;;;;;;;;;20.76;29.39;96678.91;5014905;28;2097;-77
2023/10/27 11:35:50;;;;;;;;;;;;;;;20.70;29.58;96680.81;5015383;28;896;-78
2023/10/27 11:38:16;;;;;;;;;;;;;;;20.72;29.79;96672.63;5014908;28;1295;-78
2023/10/27 11:40:41;;;;;;;;;;;;;;;20.61;29.73;96677.97;5014871;28;1349;-78
2023/10/27 11:43:07;;;;;;;;;;;;;;;20.73;29.67;96674.22;5014949;28;947;-79
2023/10/27 11:45:34;;;;;;;;;;;;;;;20.84;29.35;96670.94;5017840;28;1099;-77
2023/10/27 11:47:59;;;;;;;;;;;;;;;20.62;29.80;96673.88;5019772;28;870;-77
2023/10/27 11:50:24;;;;;;;;;;;;;;;20.59;29.77;96669.19;5035406;28;915;-78
2023/10/27 11:52:50;;;;;;;;;;;;;;;20.66;29.64;96674.53;5035740;28;1973;-78
2023/10/27 11:55:15;;;;;;;;;;;;;;;20.81;29.28;96664.16;5035698;28;1238;-78
2023/10/27 11:57:41;;;;;;;;;;;;;;;20.70;29.63;96669.50;5036818;28;1063;-77
2023/10/27 12:00:08;;;;;;;;;;;;;;;20.86;29.29;96671.22;5035318;28;1010;-78
2023/10/27 12:02:54;;;;;;;;;;;;;;;20.53;30.07;96671.06;5040719;28;1104;-77
2023/10/27 12:05:19;;;;;;;;;;;;;;;20.64;29.77;96676.25;5054173;28;964;-78
2023/10/27 12:07:45;;;;;;;;;;;;;;;20.87;29.64;96672.78;5054172;28;952;-78
2023/10/27 12:10:10;;;;;;;;;;;;;;;20.77;29.44;96669.19;5054319;28;1230;-78
2023/10/27 12:12:36;;;;;;;;;;;;;;;20.87;29.45;96667.13;5054526;28;1906;-77
2023/10/27 12:15:02;;;;;;;;;;;;;;;20.88;29.36;96665.91;5054035;28;1041;-77
2023/10/27 12:17:27;;;;;;;;;;;;;;;20.80;29.83;96668.25;5054065;28;993;-78
2023/10/27 12:19:53;;;;;;;;;;;;;;;20.49;29.82;96670.44;5053907;28;922;-78
2023/10/27 12:22:18;;;;;;;;;;;;;;;20.85;29.53;96666.06;5053959;28;909;-78
2023/10/27 12:24:44;;;;;;;;;;;;;;;20.76;29.53;96656.31;5054150;28;945;-77
2023/10/27 12:27:10;;;;;;;;;;;;;;;20.90;29.52;96662.59;5053995;28;999;-77
2023/10/27 12:29:35;;;;;;;;;;;;;;;20.72;29.74;96661.31;5053865;28;1016;-77
2023/10/27 12:32:03;;;;;;;;;;;;;;;20.84;29.44;96667.31;5054001;28;1954;-78
2023/10/27 12:34:28;;;;;;;;;;;;;;;20.80;29.37;96662.59;5054139;28;992;-78
2023/10/27 12:36:55;;;;;;;;;;;;;;;20.63;29.86;96658.53;5054189;28;1265;-78
2023/10/27 12:39:23;;;;;;;;;;;;;;;20.90;29.59;96654.09;5052164;28;1004;-77
2023/10/27 12:41:49;;;;;;;;;;;;;;;20.85;29.48;96649.09;5034888;28;947;-78
2023/10/27 12:44:16;;;;;;;;;;;;;;;20.96;29.43;96649.38;5019100;28;1254;-77
2023/10/27 12:46:42;;;;;;;;;;;;;;;21.00;29.34;96652.84;5018880;28;894;-78
2023/10/27 12:49:07;;;;;;;;;;;;;;;21.03;28.85;96660.38;5014126;28;994;-77
2023/10/27 12:51:33;;;;;;;;;;;;;;;20.90;29.40;96659.75;4997990;28;951;-78
2023/10/27 12:53:58;;;;;;;;;;;;;;;20.88;29.43;96648.13;5014032;28;1925;-77
2023/10/27 12:56:24;;;;;;;;;;;;;;;20.65;29.51;96639.03;4981556;28;993;-78